createdAt,value
2022-10-22T00:00:36.452Z,10.30
2022-10-22T00:10:58.567Z,10.67
2022-10-22T00:21:00.662Z,10.74
2022-10-22T00:31:03.169Z,10.85
2022-10-22T00:41:05.515Z,10.86
2022-10-22T00:51:08.555Z,10.78
2022-10-22T01:01:17.532Z,10.80
2022-10-22T01:11:31.831Z,10.70
2022-10-22T01:21:47.841Z,10.72
2022-10-22T01:32:00.695Z,10.81
2022-10-22T01:42:02.792Z,10.87
2022-10-22T01:52:46.952Z,10.95
2022-10-22T02:02:55.180Z,10.91
2022-10-22T02:13:00.052Z,10.93
2022-10-22T02:23:03.669Z,11.12
2022-10-22T02:33:17.919Z,11.11
2022-10-22T02:43:20.042Z,10.98
2022-10-22T02:53:22.101Z,10.75
2022-10-22T03:03:24.229Z,10.67
2022-10-22T03:13:26.305Z,10.50
2022-10-22T03:23:28.766Z,10.65
2022-10-22T03:33:30.853Z,10.80
2022-10-22T03:43:35.457Z,10.61
2022-10-22T03:53:37.595Z,10.42
2022-10-22T04:03:40.603Z,10.16
2022-10-22T04:13:43.582Z,9.91
2022-10-22T04:23:47.661Z,9.92
2022-10-22T04:33:54.717Z,9.94
2022-10-22T04:43:57.907Z,9.90
2022-10-22T04:54:00.224Z,9.71
2022-10-22T05:04:04.335Z,9.55
2022-10-22T05:14:07.884Z,9.44
2022-10-22T05:24:09.971Z,9.30
2022-10-22T05:34:12.335Z,9.30
2022-10-22T05:44:14.448Z,9.35
2022-10-22T05:54:19.242Z,9.38
2022-10-22T06:04:21.719Z,9.38
2022-10-22T06:14:25.123Z,9.37
2022-10-22T06:24:27.179Z,9.42
2022-10-22T06:34:29.248Z,9.48
2022-10-22T06:44:31.417Z,9.55
2022-10-22T06:54:33.601Z,9.58
2022-10-22T07:04:36.437Z,9.67
2022-10-22T07:14:38.677Z,9.73
2022-10-22T07:24:40.820Z,9.75
2022-10-22T07:34:43.895Z,9.87
2022-10-22T07:44:46.191Z,10.00
2022-10-22T07:54:48.293Z,10.22
2022-10-22T08:04:50.455Z,10.36
2022-10-22T08:14:52.656Z,10.44
2022-10-22T08:24:54.785Z,10.48
2022-10-22T08:34:57.282Z,10.68
2022-10-22T08:45:23.850Z,10.89
2022-10-22T08:55:26.533Z,10.99
2022-10-22T09:05:48.504Z,11.06
2022-10-22T09:15:58.038Z,11.13
2022-10-22T09:26:00.965Z,12.10
2022-10-22T09:36:07.008Z,12.34
2022-10-22T09:46:17.915Z,13.07
2022-10-22T09:56:37.944Z,13.84
2022-10-22T10:06:43.008Z,14.01
2022-10-22T10:16:53.308Z,14.05
2022-10-22T10:27:05.312Z,14.50
2022-10-22T10:37:30.511Z,14.87
2022-10-22T10:47:50.982Z,15.13
2022-10-22T10:58:09.760Z,14.57
2022-10-22T11:08:19.215Z,14.25
2022-10-22T11:18:32.306Z,14.14
2022-10-22T11:28:40.467Z,14.07
2022-10-22T11:38:42.792Z,13.94
2022-10-22T11:49:00.623Z,13.95
2022-10-22T11:59:03.005Z,14.33
2022-10-22T12:09:07.359Z,15.07
2022-10-22T12:19:18.715Z,15.87
2022-10-22T12:29:26.804Z,16.15
2022-10-22T12:39:28.973Z,15.56
2022-10-22T12:49:41.075Z,15.24
2022-10-22T12:59:49.995Z,14.80
2022-10-22T13:09:59.900Z,14.47
2022-10-22T13:20:15.181Z,14.29
2022-10-22T13:30:30.356Z,13.98
2022-10-22T13:40:32.461Z,13.56
2022-10-22T13:50:34.673Z,13.49
2022-10-22T14:00:38.946Z,13.51
2022-10-22T14:10:41.099Z,13.33
2022-10-22T14:20:43.308Z,13.16
2022-10-22T14:30:46.490Z,13.11
2022-10-22T14:40:49.199Z,12.99
2022-10-22T14:50:51.545Z,13.08
2022-10-22T15:00:53.785Z,13.16
2022-10-22T15:11:05.427Z,13.11
2022-10-22T15:21:19.078Z,12.76
2022-10-22T15:31:42.651Z,12.62
2022-10-22T15:41:44.764Z,12.36
2022-10-22T15:51:46.942Z,11.81
2022-10-22T16:01:50.199Z,11.28
2022-10-22T16:22:15.866Z,10.22
2022-10-22T16:32:18.053Z,10.08
2022-10-22T16:42:20.205Z,10.18
2022-10-22T16:52:22.293Z,10.28
2022-10-22T17:02:24.388Z,10.37
2022-10-22T17:12:26.998Z,10.53
2022-10-22T17:22:29.379Z,10.35
2022-10-22T17:32:31.961Z,9.72
2022-10-22T17:42:34.330Z,9.22
2022-10-22T17:52:36.511Z,8.81
2022-10-22T18:02:38.899Z,8.53
2022-10-22T18:12:41.364Z,8.36
2022-10-22T18:22:45.443Z,8.09
2022-10-22T18:32:47.556Z,7.97
2022-10-22T18:42:49.657Z,7.83
2022-10-22T18:52:51.878Z,7.70
2022-10-22T19:02:55.014Z,7.68
2022-10-22T19:12:57.291Z,7.64
2022-10-22T19:23:00.589Z,7.56
2022-10-22T19:33:02.736Z,7.34
2022-10-22T19:43:04.968Z,7.20
2022-10-22T19:53:07.035Z,7.05
2022-10-22T20:03:09.118Z,6.93
2022-10-22T20:13:11.208Z,6.78
2022-10-22T20:23:13.323Z,6.66
2022-10-22T20:40:13.089Z,6.64
2022-10-22T20:50:15.241Z,6.58
2022-10-22T21:00:17.520Z,6.67
2022-10-22T21:10:19.706Z,6.59
2022-10-22T21:20:24.585Z,6.50
2022-10-22T21:30:27.088Z,6.49
2022-10-22T21:40:29.232Z,6.43
2022-10-22T21:50:31.509Z,6.38
2022-10-22T22:00:34.916Z,6.89
2022-10-22T22:10:37.039Z,7.32
2022-10-22T22:20:39.179Z,7.44
2022-10-22T22:30:41.278Z,7.41
2022-10-22T22:40:43.595Z,7.44
2022-10-22T22:50:45.759Z,7.90
2022-10-22T23:00:47.866Z,7.79
2022-10-22T23:10:49.967Z,7.66
2022-10-22T23:20:53.267Z,7.18
2022-10-22T23:30:55.602Z,6.81
2022-10-22T23:40:57.882Z,6.50
2022-10-22T23:51:11.798Z,6.35
